sensor_id;sensor_type;location;lat;lon;timestamp;P1;P2;P0
62981;PMS5003;49075;53.988;27.678;2023-04-01T00:00:59;51.4;44.2;30.6
62981;PMS5003;49075;53.988;27.678;2023-04-01T00:06:20;48.8;42;29.5
62981;PMS5003;49075;53.988;27.678;2023-04-01T00:11:06;52.4;45.2;31.8
62981;PMS5003;49075;53.988;27.678;2023-04-01T00:16:13;51.4;44.8;30.6
62981;PMS5003;49075;53.988;27.678;2023-04-01T00:21:20;47.6;43;29.6
62981;PMS5003;49075;53.988;27.678;2023-04-01T00:26:10;51.2;44.6;30.2
62981;PMS5003;49075;53.988;27.678;2023-04-01T00:31:20;51.8;45.2;30
62981;PMS5003;49075;53.988;27.678;2023-04-01T00:36:07;58.8;49.6;34.4
62981;PMS5003;49075;53.988;27.678;2023-04-01T00:41:30;48;42.4;29.8
62981;PMS5003;49075;53.988;27.678;2023-04-01T00:45:58;47.8;41.4;29.8
62981;PMS5003;49075;53.988;27.678;2023-04-01T00:50:59;51.2;44.2;30.2
62981;PMS5003;49075;53.988;27.678;2023-04-01T00:56:13;48.8;42.8;29.6
62981;PMS5003;49075;53.988;27.678;2023-04-01T01:00:58;46.2;41.4;29.4
62981;PMS5003;49075;53.988;27.678;2023-04-01T01:06:04;48.3;41.8;29.3
62981;PMS5003;49075;53.988;27.678;2023-04-01T01:11:12;47.8;41.2;28.4
62981;PMS5003;49075;53.988;27.678;2023-04-01T01:16:09;50.2;43.6;30.2
62981;PMS5003;49075;53.988;27.678;2023-04-01T01:21:26;55;46.2;31.2
62981;PMS5003;49075;53.988;27.678;2023-04-01T01:26:09;52.8;44.6;30.8
62981;PMS5003;49075;53.988;27.678;2023-04-01T01:30:59;48.2;41.8;29.2
62981;PMS5003;49075;53.988;27.678;2023-04-01T01:36:12;51.8;44.8;30.6
62981;PMS5003;49075;53.988;27.678;2023-04-01T01:40:58;44.6;40.4;28.6
62981;PMS5003;49075;53.988;27.678;2023-04-01T01:45:59;46.6;40.8;28.6
62981;PMS5003;49075;53.988;27.678;2023-04-01T01:51:04;43;39.6;27.4
62981;PMS5003;49075;53.988;27.678;2023-04-01T01:56:27;44;39.2;28.4
62981;PMS5003;49075;53.988;27.678;2023-04-01T02:00:59;49.4;42.8;30.2
62981;PMS5003;49075;53.988;27.678;2023-04-01T02:05:59;49;43.3;29.8
62981;PMS5003;49075;53.988;27.678;2023-04-01T02:10:59;43.8;39.2;27.2
62981;PMS5003;49075;53.988;27.678;2023-04-01T02:16:06;50.4;44;30
62981;PMS5003;49075;53.988;27.678;2023-04-01T02:21:12;46;41;28.2
62981;PMS5003;49075;53.988;27.678;2023-04-01T02:26:06;38.6;36.8;26.4
62981;PMS5003;49075;53.988;27.678;2023-04-01T02:31:07;43.8;39.8;27.6
62981;PMS5003;49075;53.988;27.678;2023-04-01T02:36:22;44.4;40.4;28
62981;PMS5003;49075;53.988;27.678;2023-04-01T02:40:59;45.2;40.6;28.2
62981;PMS5003;49075;53.988;27.678;2023-04-01T02:46:20;49.8;43.2;29.6
62981;PMS5003;49075;53.988;27.678;2023-04-01T02:51:07;46.2;40.2;28
62981;PMS5003;49075;53.988;27.678;2023-04-01T02:55:58;50.6;43.8;30.6
62981;PMS5003;49075;53.988;27.678;2023-04-01T03:01:12;45.8;41.6;29
62981;PMS5003;49075;53.988;27.678;2023-04-01T03:06:05;47.5;41.5;27.5
62981;PMS5003;49075;53.988;27.678;2023-04-01T03:11:12;46.8;41.6;28.6
62981;PMS5003;49075;53.988;27.678;2023-04-01T03:15:58;43.2;39.6;27.4
62981;PMS5003;49075;53.988;27.678;2023-04-01T03:21:13;48.6;42.6;29.4
62981;PMS5003;49075;53.988;27.678;2023-04-01T03:26:18;51.2;43.8;30.6
62981;PMS5003;49075;53.988;27.678;2023-04-01T03:30:58;42.6;38.8;27.8
62981;PMS5003;49075;53.988;27.678;2023-04-01T03:35:58;49.2;42.4;29.4
62981;PMS5003;49075;53.988;27.678;2023-04-01T03:40:58;44.8;40;28.8
62981;PMS5003;49075;53.988;27.678;2023-04-01T03:46:06;45.4;39.4;27.2
62981;PMS5003;49075;53.988;27.678;2023-04-01T03:51:12;42.2;39.2;27.8
62981;PMS5003;49075;53.988;27.678;2023-04-01T03:55:58;46.8;41.4;28.8
62981;PMS5003;49075;53.988;27.678;2023-04-01T04:01:13;53.4;45.2;31.4
62981;PMS5003;49075;53.988;27.678;2023-04-01T04:06:04;42.8;40;27.6
62981;PMS5003;49075;53.988;27.678;2023-04-01T04:11:21;44.3;39.3;27.8
62981;PMS5003;49075;53.988;27.678;2023-04-01T04:15:58;50.4;43.6;29.4
62981;PMS5003;49075;53.988;27.678;2023-04-01T04:21:04;50;43.4;30.6
62981;PMS5003;49075;53.988;27.678;2023-04-01T04:26:26;53;44.6;30
62981;PMS5003;49075;53.988;27.678;2023-04-01T04:31:04;42.8;39.2;28.6
62981;PMS5003;49075;53.988;27.678;2023-04-01T04:35:59;44.8;40;27.8
62981;PMS5003;49075;53.988;27.678;2023-04-01T04:41:17;43.6;39.4;27.6
62981;PMS5003;49075;53.988;27.678;2023-04-01T04:45:58;42.8;38.8;27.2
62981;PMS5003;49075;53.988;27.678;2023-04-01T04:51:13;42.6;38.8;27.8
62981;PMS5003;49075;53.988;27.678;2023-04-01T04:56:12;49.3;43.5;29.5
62981;PMS5003;49075;53.988;27.678;2023-04-01T05:00:58;47.8;41.8;30.4
62981;PMS5003;49075;53.988;27.678;2023-04-01T05:05:58;57.2;48;32.8
62981;PMS5003;49075;53.988;27.678;2023-04-01T05:11:06;53.4;45.2;30.6
62981;PMS5003;49075;53.988;27.678;2023-04-01T05:15:58;47.4;41.8;29.6
62981;PMS5003;49075;53.988;27.678;2023-04-01T05:20:58;41.6;38.2;27.6
62981;PMS5003;49075;53.988;27.678;2023-04-01T05:25:58;41.4;38.4;27.6
62981;PMS5003;49075;53.988;27.678;2023-04-01T05:31:12;40.8;38.2;27.4
62981;PMS5003;49075;53.988;27.678;2023-04-01T05:36:05;39.4;36.6;26.2
62981;PMS5003;49075;53.988;27.678;2023-04-01T05:41:12;38;34.4;24.8
62981;PMS5003;49075;53.988;27.678;2023-04-01T05:46:18;38;35.2;25
62981;PMS5003;49075;53.988;27.678;2023-04-01T05:51:11;40.4;37.6;26.4
62981;PMS5003;49075;53.988;27.678;2023-04-01T05:56:10;45.6;39.8;28
62981;PMS5003;49075;53.988;27.678;2023-04-01T06:01:00;47.3;42;29.3
62981;PMS5003;49075;53.988;27.678;2023-04-01T06:06:13;46;39.8;29
62981;PMS5003;49075;53.988;27.678;2023-04-01T06:11:01;43;38.4;27.4
62981;PMS5003;49075;53.988;27.678;2023-04-01T06:16:00;43.6;39.2;28.4
62981;PMS5003;49075;53.988;27.678;2023-04-01T06:21:27;40.2;36.8;26.4
62981;PMS5003;49075;53.988;27.678;2023-04-01T06:26:01;35.6;33.8;24.2
62981;PMS5003;49075;53.988;27.678;2023-04-01T06:31:14;39.4;36.2;25.8
62981;PMS5003;49075;53.988;27.678;2023-04-01T06:36:02;43.8;37.4;27.2
62981;PMS5003;49075;53.988;27.678;2023-04-01T06:41:11;39;36.8;27.4
62981;PMS5003;49075;53.988;27.678;2023-04-01T06:45:59;38.6;35.8;26.4
62981;PMS5003;49075;53.988;27.678;2023-04-01T06:51:09;38;34;24.2
62981;PMS5003;49075;53.988;27.678;2023-04-01T06:56:19;36.4;34.6;25.4
62981;PMS5003;49075;53.988;27.678;2023-04-01T07:01:20;45.3;39.5;28.5
62981;PMS5003;49075;53.988;27.678;2023-04-01T07:06:23;41.4;37.4;27.2
62981;PMS5003;49075;53.988;27.678;2023-04-01T07:11:22;35.6;33.8;23.8
62981;PMS5003;49075;53.988;27.678;2023-04-01T07:16:21;51;44.4;31.6
62981;PMS5003;49075;53.988;27.678;2023-04-01T07:21:25;38.6;34.6;23.8
62981;PMS5003;49075;53.988;27.678;2023-04-01T07:26:15;37;34.5;25
62981;PMS5003;49075;53.988;27.678;2023-04-01T07:31:01;38.6;34.6;24.2
62981;PMS5003;49075;53.988;27.678;2023-04-01T07:35:59;44.2;38.8;28.4
62981;PMS5003;49075;53.988;27.678;2023-04-01T07:41:08;45;39.2;27.8
62981;PMS5003;49075;53.988;27.678;2023-04-01T07:46:16;42;37.8;27
62981;PMS5003;49075;53.988;27.678;2023-04-01T07:51:14;39.8;36.6;25.6
62981;PMS5003;49075;53.988;27.678;2023-04-01T07:56:01;50;42.3;29
62981;PMS5003;49075;53.988;27.678;2023-04-01T08:00:59;36.8;34.6;25
62981;PMS5003;49075;53.988;27.678;2023-04-01T08:06:14;39.6;36.8;26.4
62981;PMS5003;49075;53.988;27.678;2023-04-01T08:11:21;53.6;45.8;32
62981;PMS5003;49075;53.988;27.678;2023-04-01T08:16:20;48.4;41.8;30.2
62981;PMS5003;49075;53.988;27.678;2023-04-01T08:21:08;52.2;44;29.6
62981;PMS5003;49075;53.988;27.678;2023-04-01T08:26:08;52;44.2;31
62981;PMS5003;49075;53.988;27.678;2023-04-01T08:31:13;50.8;43.4;30.2
62981;PMS5003;49075;53.988;27.678;2023-04-01T08:35:59;48.4;41.6;29
62981;PMS5003;49075;53.988;27.678;2023-04-01T08:41:11;57.8;48;33
62981;PMS5003;49075;53.988;27.678;2023-04-01T08:46:14;53.8;45;31
62981;PMS5003;49075;53.988;27.678;2023-04-01T08:51:09;52;44;30.5
62981;PMS5003;49075;53.988;27.678;2023-04-01T08:56:17;48.8;42.4;29.8
62981;PMS5003;49075;53.988;27.678;2023-04-01T09:01:03;54.4;46;32.4
62981;PMS5003;49075;53.988;27.678;2023-04-01T09:06:11;56.4;48;34
62981;PMS5003;49075;53.988;27.678;2023-04-01T09:11:11;45.5;39.3;28.5
62981;PMS5003;49075;53.988;27.678;2023-04-01T09:16:27;44.8;40.3;28.3
62981;PMS5003;49075;53.988;27.678;2023-04-01T09:21:04;43;38.6;28
62981;PMS5003;49075;53.988;27.678;2023-04-01T09:26:24;44.8;38.5;28.8
62981;PMS5003;49075;53.988;27.678;2023-04-01T09:31:37;42;38.6;28
62981;PMS5003;49075;53.988;27.678;2023-04-01T09:36:02;43.2;39;27.4
62981;PMS5003;49075;53.988;27.678;2023-04-01T09:41:07;44.8;39.6;28.4
62981;PMS5003;49075;53.988;27.678;2023-04-01T09:46:09;45.6;40;28.2
62981;PMS5003;49075;53.988;27.678;2023-04-01T09:51:16;43.6;39;27.8
62981;PMS5003;49075;53.988;27.678;2023-04-01T09:56:13;37.2;34.8;25.2
62981;PMS5003;49075;53.988;27.678;2023-04-01T10:01:22;36.2;34.4;24.2
62981;PMS5003;49075;53.988;27.678;2023-04-01T10:06:17;41.2;37.2;27
62981;PMS5003;49075;53.988;27.678;2023-04-01T10:11:05;34.2;32.4;23.8
62981;PMS5003;49075;53.988;27.678;2023-04-01T10:16:25;36.4;33.6;25.8
62981;PMS5003;49075;53.988;27.678;2023-04-01T10:21:25;40.6;37.4;28.2
62981;PMS5003;49075;53.988;27.678;2023-04-01T10:26:18;43.4;38.8;29.4
62981;PMS5003;49075;53.988;27.678;2023-04-01T10:31:12;43.8;39.5;29.8
62981;PMS5003;49075;53.988;27.678;2023-04-01T10:36:51;41.6;37;27.8
62981;PMS5003;49075;53.988;27.678;2023-04-01T10:40:58;40.2;36.4;26.8
62981;PMS5003;49075;53.988;27.678;2023-04-01T10:46:00;44.6;40.2;29.2
62981;PMS5003;49075;53.988;27.678;2023-04-01T10:51:49;48.4;42;31
62981;PMS5003;49075;53.988;27.678;2023-04-01T10:57:02;47;41.4;30
62981;PMS5003;49075;53.988;27.678;2023-04-01T11:01:22;48.4;41.8;29.6
62981;PMS5003;49075;53.988;27.678;2023-04-01T11:11:10;40.8;37.2;27
62981;PMS5003;49075;53.988;27.678;2023-04-01T11:16:23;48.2;41.4;29.8
62981;PMS5003;49075;53.988;27.678;2023-04-01T11:21:02;41.8;37.6;26.4
62981;PMS5003;49075;53.988;27.678;2023-04-01T11:26:00;42;38;27.2
62981;PMS5003;49075;53.988;27.678;2023-04-01T11:31:18;40.8;37.3;25.5
62981;PMS5003;49075;53.988;27.678;2023-04-01T11:36:20;43.2;39;26.8
62981;PMS5003;49075;53.988;27.678;2023-04-01T11:41:22;40.8;37.4;25.8
62981;PMS5003;49075;53.988;27.678;2023-04-01T11:46:19;45.2;40.2;27.2
62981;PMS5003;49075;53.988;27.678;2023-04-01T11:51:24;43.8;38;27
62981;PMS5003;49075;53.988;27.678;2023-04-01T11:56:15;46.2;40.8;28.6
62981;PMS5003;49075;53.988;27.678;2023-04-01T12:01:06;45.8;40.6;28.6
62981;PMS5003;49075;53.988;27.678;2023-04-01T12:06:05;48.8;42;29.6
62981;PMS5003;49075;53.988;27.678;2023-04-01T12:11:06;48.4;41.4;28.8
62981;PMS5003;49075;53.988;27.678;2023-04-01T12:16:00;45.4;40.2;27.8
62981;PMS5003;49075;53.988;27.678;2023-04-01T12:20:57;51;43.6;30
62981;PMS5003;49075;53.988;27.678;2023-04-01T12:26:00;49.4;42.4;30
62981;PMS5003;49075;53.988;27.678;2023-04-01T12:31:20;52;45.5;30.8
62981;PMS5003;49075;53.988;27.678;2023-04-01T12:36:08;43.2;38.8;27.4
62981;PMS5003;49075;53.988;27.678;2023-04-01T12:41:08;50.2;43.2;30.8
62981;PMS5003;49075;53.988;27.678;2023-04-01T12:46:13;54.8;46;31.4
62981;PMS5003;49075;53.988;27.678;2023-04-01T12:51:08;50.8;43.6;30.2
62981;PMS5003;49075;53.988;27.678;2023-04-01T12:56:19;51.6;43.6;30.2
62981;PMS5003;49075;53.988;27.678;2023-04-01T13:01:25;51;43.4;30.6
62981;PMS5003;49075;53.988;27.678;2023-04-01T13:06:07;51.8;43.6;30.4
62981;PMS5003;49075;53.988;27.678;2023-04-01T13:11:02;51.6;44.4;31
62981;PMS5003;49075;53.988;27.678;2023-04-01T13:16:00;54.6;45.4;31.4
62981;PMS5003;49075;53.988;27.678;2023-04-01T13:21:13;49.8;42.4;30
62981;PMS5003;49075;53.988;27.678;2023-04-01T13:26:22;51.4;44.4;31.8
62981;PMS5003;49075;53.988;27.678;2023-04-01T13:31:08;52.3;44;31
62981;PMS5003;49075;53.988;27.678;2023-04-01T13:36:19;55;46.8;32.2
62981;PMS5003;49075;53.988;27.678;2023-04-01T13:41:06;55.2;46.2;32.6
62981;PMS5003;49075;53.988;27.678;2023-04-01T13:46:06;54;45.4;31.8
62981;PMS5003;49075;53.988;27.678;2023-04-01T13:51:03;56.4;47.6;32.4
62981;PMS5003;49075;53.988;27.678;2023-04-01T13:56:15;51.6;44;30.4
62981;PMS5003;49075;53.988;27.678;2023-04-01T14:01:15;52.2;44.2;30.6
62981;PMS5003;49075;53.988;27.678;2023-04-01T14:06:02;56.8;47.6;33
62981;PMS5003;49075;53.988;27.678;2023-04-01T14:11:02;53.2;44.8;31.6
62981;PMS5003;49075;53.988;27.678;2023-04-01T14:16:03;54;45.8;30.6
62981;PMS5003;49075;53.988;27.678;2023-04-01T14:21:22;56.6;46.6;32.2
62981;PMS5003;49075;53.988;27.678;2023-04-01T14:26:09;56.8;47;31.8
62981;PMS5003;49075;53.988;27.678;2023-04-01T14:31:14;52.8;45.3;31
62981;PMS5003;49075;53.988;27.678;2023-04-01T14:36:23;55.8;46.8;32.2
62981;PMS5003;49075;53.988;27.678;2023-04-01T14:41:26;52.6;44.6;31.2
62981;PMS5003;49075;53.988;27.678;2023-04-01T14:46:04;56;46.8;32
62981;PMS5003;49075;53.988;27.678;2023-04-01T14:51:02;52.4;45;31
62981;PMS5003;49075;53.988;27.678;2023-04-01T14:55:59;58.2;48;33.2
62981;PMS5003;49075;53.988;27.678;2023-04-01T15:01:25;62.4;51.6;35.4
62981;PMS5003;49075;53.988;27.678;2023-04-01T15:06:34;48.6;42.2;29.4
62981;PMS5003;49075;53.988;27.678;2023-04-01T15:11:27;48.8;41.8;29.4
62981;PMS5003;49075;53.988;27.678;2023-04-01T15:16:01;50.8;43.4;30.4
62981;PMS5003;49075;53.988;27.678;2023-04-01T15:21:22;45.8;40.6;28.8
62981;PMS5003;49075;53.988;27.678;2023-04-01T15:26:33;48.6;42.2;29.2
62981;PMS5003;49075;53.988;27.678;2023-04-01T15:31:19;53.6;44.6;29.8
62981;PMS5003;49075;53.988;27.678;2023-04-01T15:36:01;53;44.8;29.5
62981;PMS5003;49075;53.988;27.678;2023-04-01T15:41:39;55.8;47.8;32.2
62981;PMS5003;49075;53.988;27.678;2023-04-01T15:46:08;58.2;49.4;32.4
62981;PMS5003;49075;53.988;27.678;2023-04-01T15:51:23;59.8;49.8;33.4
62981;PMS5003;49075;53.988;27.678;2023-04-01T15:55:59;57;48;32.8
62981;PMS5003;49075;53.988;27.678;2023-04-01T16:01:02;57.6;48.4;31.6
62981;PMS5003;49075;53.988;27.678;2023-04-01T16:06:11;60.2;49.8;34
62981;PMS5003;49075;53.988;27.678;2023-04-01T16:11:08;58.8;48.4;33.2
62981;PMS5003;49075;53.988;27.678;2023-04-01T16:16:24;56.8;47.4;31.6
62981;PMS5003;49075;53.988;27.678;2023-04-01T16:21:00;56.2;46.8;31.4
62981;PMS5003;49075;53.988;27.678;2023-04-01T16:26:01;60.6;50.4;32.8
62981;PMS5003;49075;53.988;27.678;2023-04-01T16:31:13;61.6;51.6;35
62981;PMS5003;49075;53.988;27.678;2023-04-01T16:35:59;55.3;46.3;32
62981;PMS5003;49075;53.988;27.678;2023-04-01T16:41:07;56.4;46.6;31.6
62981;PMS5003;49075;53.988;27.678;2023-04-01T16:46:13;59.2;49.6;32.8
62981;PMS5003;49075;53.988;27.678;2023-04-01T16:50:59;56.4;47.6;32.6
62981;PMS5003;49075;53.988;27.678;2023-04-01T16:56:38;57.2;47.6;32.8
62981;PMS5003;49075;53.988;27.678;2023-04-01T17:01:32;58.2;48.6;33.4
62981;PMS5003;49075;53.988;27.678;2023-04-01T17:06:17;62;51.4;34.4
62981;PMS5003;49075;53.988;27.678;2023-04-01T17:10:59;60.4;50.2;33
62981;PMS5003;49075;53.988;27.678;2023-04-01T17:16:01;61.6;50.8;34.2
62981;PMS5003;49075;53.988;27.678;2023-04-01T17:21:22;58.4;49.4;33.6
62981;PMS5003;49075;53.988;27.678;2023-04-01T17:26:17;58.4;48.4;32.8
62981;PMS5003;49075;53.988;27.678;2023-04-01T17:31:07;63.8;53;36
62981;PMS5003;49075;53.988;27.678;2023-04-01T17:36:40;57.5;48.5;33.3
62981;PMS5003;49075;53.988;27.678;2023-04-01T17:41:00;59;48.8;33.2
62981;PMS5003;49075;53.988;27.678;2023-04-01T17:46:01;57.2;47.8;33
62981;PMS5003;49075;53.988;27.678;2023-04-01T17:51:03;57.4;48.4;33
62981;PMS5003;49075;53.988;27.678;2023-04-01T17:56:12;57;48;33.2
62981;PMS5003;49075;53.988;27.678;2023-04-01T18:01:49;56.2;47.8;33.2
62981;PMS5003;49075;53.988;27.678;2023-04-01T18:06:01;53.2;44.8;30.4
62981;PMS5003;49075;53.988;27.678;2023-04-01T18:11:13;56.8;48;33.2
62981;PMS5003;49075;53.988;27.678;2023-04-01T18:16:17;53.4;45.8;32
62981;PMS5003;49075;53.988;27.678;2023-04-01T18:21:06;52.4;45.2;31
62981;PMS5003;49075;53.988;27.678;2023-04-01T18:26:02;52.4;45;31
62981;PMS5003;49075;53.988;27.678;2023-04-01T18:31:03;53;44.8;30.8
62981;PMS5003;49075;53.988;27.678;2023-04-01T18:36:03;56.8;48;33.8
62981;PMS5003;49075;53.988;27.678;2023-04-01T18:41:10;57.6;48.6;33.2
62981;PMS5003;49075;53.988;27.678;2023-04-01T18:46:05;57.6;48;33.2
62981;PMS5003;49075;53.988;27.678;2023-04-01T18:51:10;57;47.8;33.2
62981;PMS5003;49075;53.988;27.678;2023-04-01T18:56:09;55;46;32.4
62981;PMS5003;49075;53.988;27.678;2023-04-01T19:01:23;50.4;43;30.6
62981;PMS5003;49075;53.988;27.678;2023-04-01T19:06:21;55.2;45.6;32.2
62981;PMS5003;49075;53.988;27.678;2023-04-01T19:11:21;51.8;44.6;31
62981;PMS5003;49075;53.988;27.678;2023-04-01T19:16:37;55.6;46.4;32.2
62981;PMS5003;49075;53.988;27.678;2023-04-01T19:20:59;53.2;45.4;30.4
62981;PMS5003;49075;53.988;27.678;2023-04-01T19:25:59;57.6;48.2;33.2
62981;PMS5003;49075;53.988;27.678;2023-04-01T19:30:59;54.4;46.4;31.4
62981;PMS5003;49075;53.988;27.678;2023-04-01T19:36:00;56.8;47.4;31.6
62981;PMS5003;49075;53.988;27.678;2023-04-01T19:41:26;59;48.3;32.7
62981;PMS5003;49075;53.988;27.678;2023-04-01T19:46:00;54;45.3;31.3
62981;PMS5003;49075;53.988;27.678;2023-04-01T19:50:59;53.2;45.2;30.6
62981;PMS5003;49075;53.988;27.678;2023-04-01T19:56:00;56.2;46.8;32
62981;PMS5003;49075;53.988;27.678;2023-04-01T20:00:57;50.8;43;29.5
62981;PMS5003;49075;53.988;27.678;2023-04-01T20:06:33;52.8;45.3;30.3
62981;PMS5003;49075;53.988;27.678;2023-04-01T20:11:01;49.2;42.8;30
62981;PMS5003;49075;53.988;27.678;2023-04-01T20:16:09;48.8;42;29.4
62981;PMS5003;49075;53.988;27.678;2023-04-01T20:21:18;49;42.4;30.2
62981;PMS5003;49075;53.988;27.678;2023-04-01T20:26:13;51.2;43;29.2
62981;PMS5003;49075;53.988;27.678;2023-04-01T20:31:01;47.2;41;28.6
62981;PMS5003;49075;53.988;27.678;2023-04-01T20:36:20;41.4;37.2;26
62981;PMS5003;49075;53.988;27.678;2023-04-01T20:41:11;48.3;41.3;29.7
62981;PMS5003;49075;53.988;27.678;2023-04-01T20:45:59;47;40.8;29.2
62981;PMS5003;49075;53.988;27.678;2023-04-01T20:51:29;45.8;40.2;28.4
62981;PMS5003;49075;53.988;27.678;2023-04-01T20:56:23;43.8;39.6;27.6
62981;PMS5003;49075;53.988;27.678;2023-04-01T21:01:01;45.2;39.8;28.6
62981;PMS5003;49075;53.988;27.678;2023-04-01T21:06:03;47;41.3;29.3
62981;PMS5003;49075;53.988;27.678;2023-04-01T21:11:07;40.8;37.8;27.8
62981;PMS5003;49075;53.988;27.678;2023-04-01T21:16:02;36.2;34.6;25.6
62981;PMS5003;49075;53.988;27.678;2023-04-01T21:21:15;39.6;36.2;25.2
62981;PMS5003;49075;53.988;27.678;2023-04-01T21:26:12;40.4;37.2;27
62981;PMS5003;49075;53.988;27.678;2023-04-01T21:31:14;35.6;34.4;26
62981;PMS5003;49075;53.988;27.678;2023-04-01T21:36:08;38.2;35.8;26
62981;PMS5003;49075;53.988;27.678;2023-04-01T21:41:02;35.2;32.6;24.2
62981;PMS5003;49075;53.988;27.678;2023-04-01T21:46:09;34;33;24
62981;PMS5003;49075;53.988;27.678;2023-04-01T21:51:05;30.8;29.6;22.6
62981;PMS5003;49075;53.988;27.678;2023-04-01T21:56:04;32.6;31;23
62981;PMS5003;49075;53.988;27.678;2023-04-01T22:01:16;37.8;35.2;25.4
62981;PMS5003;49075;53.988;27.678;2023-04-01T22:06:15;35.3;32.5;22.8
62981;PMS5003;49075;53.988;27.678;2023-04-01T22:11:21;29.6;28.2;22.6
62981;PMS5003;49075;53.988;27.678;2023-04-01T22:16:00;34.2;32.4;24
62981;PMS5003;49075;53.988;27.678;2023-04-01T22:21:12;31.2;29.6;22.6
62981;PMS5003;49075;53.988;27.678;2023-04-01T22:26:05;30;28.6;21
62981;PMS5003;49075;53.988;27.678;2023-04-01T22:31:22;36.2;35.2;25.4
62981;PMS5003;49075;53.988;27.678;2023-04-01T22:36:00;33.6;31.8;23.8
62981;PMS5003;49075;53.988;27.678;2023-04-01T22:41:17;36.2;34.2;25.2
62981;PMS5003;49075;53.988;27.678;2023-04-01T22:46:22;33.6;31.6;23.6
62981;PMS5003;49075;53.988;27.678;2023-04-01T22:51:15;37.6;35.2;25.4
62981;PMS5003;49075;53.988;27.678;2023-04-01T22:56:08;28.8;28;21.4
62981;PMS5003;49075;53.988;27.678;2023-04-01T23:01:18;30.4;29.8;22.2
62981;PMS5003;49075;53.988;27.678;2023-04-01T23:06:09;33.5;31.5;23.8
62981;PMS5003;49075;53.988;27.678;2023-04-01T23:11:25;31;30.8;23.8
62981;PMS5003;49075;53.988;27.678;2023-04-01T23:15:57;28.6;27;20.8
62981;PMS5003;49075;53.988;27.678;2023-04-01T23:21:22;35.2;33.2;25.2
62981;PMS5003;49075;53.988;27.678;2023-04-01T23:26:04;29.2;29.2;22.6
62981;PMS5003;49075;53.988;27.678;2023-04-01T23:31:03;34;32.4;23.6
62981;PMS5003;49075;53.988;27.678;2023-04-01T23:35:57;28.2;27.6;21
62981;PMS5003;49075;53.988;27.678;2023-04-01T23:41:05;37.2;35.2;25.6
62981;PMS5003;49075;53.988;27.678;2023-04-01T23:46:21;31.4;31.2;23.6
62981;PMS5003;49075;53.988;27.678;2023-04-01T23:51:03;33.4;32.4;24.4
62981;PMS5003;49075;53.988;27.678;2023-04-01T23:56:33;30.2;29;22.6
